Time;durP1;ratioP1;P1;durP2;ratioP2;P2;SDS_P1;SDS_P2;PMS_P1;PMS_P2;Temp;Humidity;BMP_temperature;BMP_pressure;BME280_temperature;BME280_humidity;BME280_pressure;Samples;Min_cycle;Max_cycle;Signal;HPM_P1;HPM_P2
2021/11/05 00:02:06;;;;;;;3.00;1.45;;;;;;;10.64;67.19;100345.28;4963391;28;97724;-79
2021/11/05 00:04:33;;;;;;;1.55;1.45;;;;;;;10.81;66.75;100348.06;4955688;28;99037;-79
2021/11/05 00:07:02;;;;;;;1.60;1.17;;;;;;;11.05;66.44;100352.28;4955730;28;96907;-78
2021/11/05 00:09:28;;;;;;;1.73;1.50;;;;;;;10.89;64.77;100360.97;4955881;28;100126;-79
2021/11/05 00:11:55;;;;;;;1.52;1.20;;;;;;;10.76;64.82;100363.28;4950013;28;98830;-79
2021/11/05 00:14:21;;;;;;;3.08;1.17;;;;;;;11.47;64.45;100373.34;4953103;28;96657;-79
2021/11/05 00:16:48;;;;;;;2.03;1.27;;;;;;;11.54;63.95;100381.88;4949547;28;97249;-79
2021/11/05 00:19:15;;;;;;;1.35;1.02;;;;;;;11.78;62.76;100385.22;4951890;28;98482;-79
2021/11/05 00:21:41;;;;;;;0.98;0.98;;;;;;;11.31;63.90;100390.81;4945705;28;99272;-79
2021/11/05 00:24:09;;;;;;;6.45;1.40;;;;;;;10.96;63.88;100388.88;4952689;28;97482;-79
2021/11/05 00:26:36;;;;;;;1.00;0.85;;;;;;;10.71;65.66;100397.81;4954563;28;96905;-79
2021/11/05 00:29:02;;;;;;;1.23;1.13;;;;;;;10.97;64.53;100393.19;4951518;28;98128;-79
2021/11/05 00:31:29;;;;;;;4.22;1.20;;;;;;;10.72;65.12;100399.53;4955376;28;98940;-78
2021/11/05 00:33:55;;;;;;;2.17;0.82;;;;;;;10.55;66.47;100417.88;4954309;28;96799;-79
2021/11/05 00:36:22;;;;;;;1.05;0.90;;;;;;;10.78;65.15;100403.69;4955867;28;96847;-79
2021/11/05 00:38:48;;;;;;;1.63;0.95;;;;;;;11.06;64.02;100408.69;4952147;28;98898;-78
2021/11/05 00:41:16;;;;;;;1.50;1.00;;;;;;;10.96;63.18;100417.94;4955719;28;97078;-81
2021/11/05 00:43:44;;;;;;;1.98;1.20;;;;;;;10.70;64.41;100426.94;4956174;28;96695;-78
2021/11/05 00:46:11;;;;;;;3.13;1.10;;;;;;;11.42;64.12;100435.34;4953255;28;96974;-79
2021/11/05 00:48:38;;;;;;;3.85;0.90;;;;;;;11.24;63.50;100431.69;4956484;28;101897;-79
2021/11/05 00:51:04;;;;;;;1.63;1.00;;;;;;;11.05;64.02;100430.75;4957189;28;98246;-78
2021/11/05 00:53:31;;;;;;;1.83;1.08;;;;;;;11.34;63.95;100433.03;4967370;28;96800;-79
2021/11/05 00:55:58;;;;;;;1.58;0.70;;;;;;;10.75;65.26;100444.34;4956371;28;97817;-79
2021/11/05 00:58:26;;;;;;;2.20;1.13;;;;;;;10.85;64.68;100443.94;4949288;28;101525;-78
2021/11/05 01:00:52;;;;;;;2.53;1.13;;;;;;;11.31;65.23;100441.09;4946757;28;97847;-78
2021/11/05 01:03:19;;;;;;;1.10;1.00;;;;;;;11.14;65.30;100454.19;4955929;28;96738;-78
2021/11/05 01:05:45;;;;;;;1.38;1.15;;;;;;;11.04;65.04;100451.03;4954744;28;96848;-79
2021/11/05 01:08:12;;;;;;;1.30;1.20;;;;;;;11.04;64.50;100447.53;4955201;28;99041;-79
2021/11/05 01:10:39;;;;;;;2.30;1.13;;;;;;;11.49;64.69;100456.16;4954806;28;98950;-78
2021/11/05 01:13:07;;;;;;;2.47;1.30;;;;;;;11.37;64.52;100453.19;4949108;28;96967;-79
2021/11/05 01:15:35;;;;;;;4.15;1.67;;;;;;;11.33;63.96;100465.69;4934855;28;96892;-80
2021/11/05 01:18:02;;;;;;;1.30;1.00;;;;;;;11.68;63.90;100458.88;4941117;28;98850;-78
2021/11/05 01:20:30;;;;;;;2.08;1.15;;;;;;;11.88;63.00;100468.59;4940375;28;99202;-79
2021/11/05 01:22:56;;;;;;;1.38;1.20;;;;;;;11.40;63.78;100467.16;4953212;28;96664;-79
2021/11/05 01:25:23;;;;;;;1.63;1.10;;;;;;;11.21;63.85;100476.78;4953950;28;97160;-79
2021/11/05 01:27:50;;;;;;;2.55;1.27;;;;;;;11.29;64.28;100482.59;4951882;28;99353;-79
2021/11/05 01:30:18;;;;;;;2.30;1.10;;;;;;;11.34;65.16;100488.56;4948972;28;99179;-79
2021/11/05 01:32:47;;;;;;;2.70;1.10;;;;;;;11.10;63.94;100489.59;4953605;28;96836;-78
2021/11/05 01:35:15;;;;;;;1.88;0.90;;;;;;;10.89;65.87;100499.28;4944373;28;99152;-79
2021/11/05 01:37:42;;;;;;;2.72;1.10;;;;;;;11.15;65.79;100498.22;4951365;28;102191;-78
2021/11/05 01:40:09;;;;;;;1.35;1.08;;;;;;;11.31;65.25;100499.28;4949547;28;96878;-78
2021/11/05 01:42:36;;;;;;;1.02;0.90;;;;;;;10.81;66.40;100516.38;4952538;28;96954;-79
2021/11/05 01:45:04;;;;;;;3.20;1.10;;;;;;;10.44;68.10;100519.56;4939415;28;97527;-79
2021/11/05 01:47:30;;;;;;;3.00;1.52;;;;;;;10.96;66.40;100523.69;4946123;28;99424;-78
2021/11/05 01:49:58;;;;;;;2.05;1.30;;;;;;;10.99;66.96;100526.19;4952791;28;100518;-79
2021/11/05 01:52:25;;;;;;;1.48;1.33;;;;;;;11.18;66.23;100535.09;4951516;28;97329;-78
2021/11/05 01:54:53;;;;;;;3.22;1.17;;;;;;;11.13;66.52;100537.06;4951145;28;97983;-79
2021/11/05 01:57:20;;;;;;;1.75;1.23;;;;;;;10.98;66.18;100527.97;4962766;28;97916;-79
2021/11/05 01:59:50;;;;;;;1.55;1.40;;;;;;;11.11;66.11;100544.19;4968032;28;97816;-79
2021/11/05 02:02:17;;;;;;;2.53;1.58;;;;;;;11.30;65.20;100550.44;4974015;28;96926;-79
2021/11/05 02:04:44;;;;;;;1.35;1.02;;;;;;;11.78;63.81;100546.69;4975751;28;96536;-80
2021/11/05 02:07:12;;;;;;;1.60;1.13;;;;;;;11.21;63.38;100553.50;4967579;28;97906;-79
2021/11/05 02:09:41;;;;;;;1.83;1.27;;;;;;;11.22;64.17;100555.22;4968807;28;99288;-79
2021/11/05 02:12:09;;;;;;;2.15;0.90;;;;;;;11.19;64.29;100557.97;4971387;28;96704;-78
2021/11/05 02:14:36;;;;;;;2.78;1.27;;;;;;;11.50;64.37;100574.28;4969611;28;96942;-79
2021/11/05 02:17:04;;;;;;;1.90;1.13;;;;;;;11.39;64.59;100570.38;4974687;28;98175;-78
2021/11/05 02:19:33;;;;;;;2.80;1.08;;;;;;;11.73;63.39;100572.47;4976704;28;98818;-78
2021/11/05 02:22:03;;;;;;;1.73;0.98;;;;;;;11.51;63.91;100581.31;4977657;28;95989;-79
2021/11/05 02:24:30;;;;;;;1.02;1.00;;;;;;;11.49;64.36;100585.81;4976079;28;96682;-79
2021/11/05 02:26:58;;;;;;;1.02;0.90;;;;;;;11.83;63.45;100592.34;4975908;28;100353;-79
2021/11/05 02:29:27;;;;;;;0.82;0.80;;;;;;;11.21;62.35;100585.22;4971081;28;97976;-79
2021/11/05 02:31:54;;;;;;;1.85;1.13;;;;;;;11.32;64.75;100593.59;4975322;28;96557;-79
2021/11/05 02:34:21;;;;;;;2.03;1.08;;;;;;;11.78;63.26;100595.19;4972902;28;96563;-79
2021/11/05 02:36:47;;;;;;;2.47;1.20;;;;;;;11.78;62.74;100602.28;4966423;28;98095;-79
2021/11/05 02:39:15;;;;;;;2.97;1.17;;;;;;;11.94;62.78;100603.34;4957492;28;96810;-79
2021/11/05 02:41:44;;;;;;;1.15;1.05;;;;;;;12.02;62.37;100603.88;4955658;28;96721;-79
2021/11/05 02:44:12;;;;;;;1.15;0.95;;;;;;;12.16;62.07;100612.06;4953858;28;96966;-79
2021/11/05 02:46:38;;;;;;;2.67;1.00;;;;;;;11.90;63.36;100613.22;4954045;28;97893;-79
2021/11/05 02:49:07;;;;;;;2.10;1.40;;;;;;;11.89;63.06;100632.66;4951320;28;98960;-79
2021/11/05 02:51:35;;;;;;;1.35;1.17;;;;;;;11.64;63.17;100623.13;4940816;28;96792;-79
2021/11/05 02:54:05;;;;;;;2.50;1.65;;;;;;;11.96;62.80;100646.50;4952801;28;96807;-79
2021/11/05 02:56:33;;;;;;;2.22;1.70;;;;;;;11.49;65.34;100641.38;4953561;28;100700;-78
2021/11/05 02:59:00;;;;;;;2.45;1.60;;;;;;;11.94;63.60;100641.28;4954602;28;99178;-79
2021/11/05 03:01:27;;;;;;;3.88;1.80;;;;;;;12.07;63.69;100643.41;4957912;28;97874;-79
2021/11/05 03:03:58;;;;;;;2.05;1.80;;;;;;;12.27;62.81;100652.19;4955271;28;96960;-79
2021/11/05 03:06:25;;;;;;;2.33;1.92;;;;;;;12.15;62.90;100651.84;4963157;28;98259;-79
2021/11/05 03:08:51;;;;;;;2.13;1.80;;;;;;;12.11;62.78;100658.22;4957289;28;99148;-80
2021/11/05 03:11:18;;;;;;;2.60;1.95;;;;;;;12.31;62.53;100658.22;4954082;28;96863;-80
2021/11/05 03:13:46;;;;;;;2.70;2.17;;;;;;;12.04;63.46;100659.41;4955053;28;96960;-79
2021/11/05 03:16:13;;;;;;;3.17;2.20;;;;;;;12.26;62.51;100671.69;4955651;28;99699;-80
2021/11/05 03:18:41;;;;;;;2.35;2.15;;;;;;;11.83;61.91;100662.03;4956720;28;96782;-79
2021/11/05 03:21:09;;;;;;;4.45;2.33;;;;;;;12.36;62.68;100672.13;4957639;28;97067;-79
2021/11/05 03:23:37;;;;;;;4.75;2.38;;;;;;;12.37;62.55;100685.31;4957053;28;96778;-80
2021/11/05 03:26:04;;;;;;;4.03;2.30;;;;;;;12.15;62.69;100687.16;4956657;28;98821;-79
2021/11/05 03:28:30;;;;;;;3.03;2.38;;;;;;;12.24;62.47;100694.72;4955503;28;99215;-80
2021/11/05 03:30:58;;;;;;;3.00;2.38;;;;;;;12.30;63.16;100697.09;4957725;28;97164;-79
2021/11/05 03:33:25;;;;;;;3.97;2.80;;;;;;;12.19;62.91;100699.38;4956883;28;96909;-80
2021/11/05 03:35:51;;;;;;;3.47;2.85;;;;;;;11.98;64.28;100708.22;4955751;28;99332;-80
2021/11/05 03:38:17;;;;;;;3.08;2.33;;;;;;;11.84;63.85;100711.44;4955157;28;100275;-79
2021/11/05 03:40:44;;;;;;;3.38;2.63;;;;;;;12.13;64.08;100719.97;4957228;28;96732;-79
2021/11/05 03:43:10;;;;;;;3.42;2.65;;;;;;;12.07;63.75;100729.03;4956358;28;96746;-79
2021/11/05 03:45:37;;;;;;;2.92;2.55;;;;;;;12.23;63.26;100729.22;4957517;28;97897;-80
2021/11/05 03:48:05;;;;;;;3.88;2.65;;;;;;;12.19;63.91;100732.94;4957256;28;101008;-79
2021/11/05 03:50:32;;;;;;;3.17;2.88;;;;;;;12.14;63.92;100741.06;4957402;28;96873;-79
2021/11/05 03:52:58;;;;;;;3.35;3.05;;;;;;;12.18;63.67;100734.72;4955130;28;96738;-79
2021/11/05 03:55:25;;;;;;;4.45;3.10;;;;;;;12.33;63.34;100746.47;4952191;28;98228;-78
2021/11/05 03:57:51;;;;;;;3.60;2.90;;;;;;;12.37;63.63;100738.31;4959904;28;97704;-79
2021/11/05 04:00:18;;;;;;;5.25;2.97;;;;;;;12.10;64.78;100736.81;4943932;28;96880;-79
2021/11/05 04:02:45;;;;;;;3.63;3.33;;;;;;;12.24;63.91;100742.41;4946088;28;97040;-79
2021/11/05 04:05:12;;;;;;;4.85;3.10;;;;;;;12.10;63.32;100735.97;4952729;28;101891;-79
2021/11/05 04:07:39;;;;;;;3.33;3.03;;;;;;;12.35;63.78;100750.75;4955836;28;98790;-79
2021/11/05 04:10:06;;;;;;;3.40;3.10;;;;;;;12.39;62.81;100756.81;4951537;28;97468;-79
2021/11/05 04:12:33;;;;;;;4.10;3.70;;;;;;;12.09;64.38;100751.00;4953673;28;96752;-79
2021/11/05 04:14:59;;;;;;;4.82;3.50;;;;;;;12.15;64.35;100752.53;4952634;28;98929;-79
2021/11/05 04:17:26;;;;;;;5.22;3.78;;;;;;;12.16;64.36;100755.09;4955907;28;98850;-79
2021/11/05 04:19:55;;;;;;;4.80;4.28;;;;;;;12.39;63.96;100764.75;4955224;28;97263;-78
2021/11/05 04:22:22;;;;;;;4.60;4.07;;;;;;;12.38;62.35;100770.97;4958714;28;96907;-79
2021/11/05 04:24:49;;;;;;;4.97;4.28;;;;;;;12.49;63.30;100774.03;4953751;28;98934;-79
2021/11/05 04:27:16;;;;;;;4.45;4.05;;;;;;;12.49;63.33;100779.31;4953267;28;98828;-79
2021/11/05 04:29:43;;;;;;;5.85;4.88;;;;;;;11.89;64.85;100780.06;4946542;28;96774;-78
2021/11/05 04:32:09;;;;;;;7.00;5.22;;;;;;;12.28;63.73;100775.78;4955421;28;96816;-78
2021/11/05 04:34:36;;;;;;;5.97;5.13;;;;;;;12.10;64.43;100781.84;4955575;28;99485;-79
2021/11/05 04:37:05;;;;;;;7.32;6.05;;;;;;;12.32;64.05;100787.13;4954577;28;99007;-79
2021/11/05 04:39:33;;;;;;;6.80;5.95;;;;;;;12.19;64.52;100792.09;4956611;28;96770;-78
2021/11/05 04:42:01;;;;;;;7.32;6.13;;;;;;;12.35;64.20;100798.44;4956386;28;96980;-78
2021/11/05 04:44:28;;;;;;;9.32;7.03;;;;;;;12.24;64.32;100800.69;4947083;28;98663;-78
2021/11/05 04:46:54;;;;;;;7.65;6.60;;;;;;;12.31;64.08;100794.22;4950930;28;99187;-79
2021/11/05 04:49:22;;;;;;;8.10;6.85;;;;;;;11.43;67.64;100794.22;4955892;28;96849;-79
2021/11/05 04:51:50;;;;;;;12.98;7.03;;;;;;;12.13;65.27;100797.63;4955070;28;96873;-79
2021/11/05 04:54:17;;;;;;;8.82;7.47;;;;;;;11.96;65.21;100805.38;4954594;28;99149;-79
2021/11/05 04:56:45;;;;;;;10.23;8.20;;;;;;;12.50;64.12;100817.28;4954318;28;99163;-79
2021/11/05 04:59:12;;;;;;;10.68;9.07;;;;;;;11.72;66.37;100811.63;4955932;28;97330;-78
2021/11/05 05:01:39;;;;;;;11.32;9.05;;;;;;;11.67;65.53;100816.25;4949361;28;96989;-79
2021/11/05 05:04:09;;;;;;;14.10;9.40;;;;;;;11.87;66.11;100821.66;4955794;28;99387;-79
2021/11/05 05:06:35;;;;;;;12.35;9.82;;;;;;;11.71;65.62;100828.44;4953628;28;101678;-78
2021/11/05 05:09:02;;;;;;;12.82;9.85;;;;;;;12.20;64.38;100836.19;4944580;28;97263;-78
2021/11/05 05:11:29;;;;;;;15.38;10.40;;;;;;;12.00;66.05;100843.22;4953596;28;96874;-78
2021/11/05 05:13:57;;;;;;;12.93;10.30;;;;;;;11.76;65.97;100842.38;4954842;28;98205;-78
2021/11/05 05:16:23;;;;;;;16.95;12.00;;;;;;;12.15;65.34;100843.44;4949909;28;98833;-79
2021/11/05 05:18:50;;;;;;;13.30;11.07;;;;;;;12.06;64.06;100841.19;4953088;28;97634;-77
2021/11/05 05:21:16;;;;;;;13.75;11.25;;;;;;;12.29;64.72;100842.88;4954470;28;96818;-79
2021/11/05 05:23:43;;;;;;;16.05;11.68;;;;;;;12.34;64.60;100843.56;4951823;28;98968;-79
2021/11/05 05:26:10;;;;;;;15.27;12.00;;;;;;;12.32;64.32;100854.25;4948557;28;99226;-79
2021/11/05 05:28:36;;;;;;;16.42;12.25;;;;;;;12.50;63.99;100859.69;4954174;28;97119;-79
2021/11/05 05:31:07;;;;;;;17.48;12.80;;;;;;;11.91;65.52;100874.44;4952444;28;97377;-78
2021/11/05 05:33:35;;;;;;;16.13;12.57;;;;;;;12.66;63.75;100882.00;4955673;28;101781;-79
2021/11/05 05:36:02;;;;;;;16.27;12.63;;;;;;;12.60;63.64;100877.78;4953301;28;99025;-79
2021/11/05 05:38:28;;;;;;;18.55;12.88;;;;;;;12.67;63.29;100891.66;4957738;28;96758;-79
2021/11/05 05:40:55;;;;;;;18.92;13.95;;;;;;;12.82;62.17;100893.66;4963772;28;96814;-79
2021/11/05 05:43:21;;;;;;;19.02;13.57;;;;;;;12.38;63.23;100896.38;4961339;28;97638;-77
2021/11/05 05:45:48;;;;;;;16.80;14.02;;;;;;;12.43;63.85;100905.94;4974154;28;98899;-78
2021/11/05 05:48:16;;;;;;;16.73;12.75;;;;;;;12.68;62.87;100911.94;4976304;28;96921;-79
2021/11/05 05:50:43;;;;;;;18.58;12.55;;;;;;;12.92;62.48;100912.72;4974365;28;96589;-78
2021/11/05 05:53:09;;;;;;;16.75;13.52;;;;;;;12.91;62.46;100913.66;5007056;28;97848;-79
2021/11/05 05:55:38;;;;;;;20.48;13.73;;;;;;;12.77;63.16;100916.88;4958002;28;99145;-79
2021/11/05 05:58:05;;;;;;;21.58;15.10;;;;;;;12.59;63.30;100928.25;4955793;28;96784;-79
2021/11/05 06:00:34;;;;;;;19.40;13.60;;;;;;;11.76;65.00;100930.59;4953707;28;96941;-80
2021/11/05 06:03:01;;;;;;;19.95;14.40;;;;;;;12.31;64.29;100928.50;4955884;28;96928;-82
2021/11/05 06:05:29;;;;;;;20.27;14.68;;;;;;;12.38;63.47;100929.97;4955883;28;98216;-82
2021/11/05 06:07:55;;;;;;;18.73;14.65;;;;;;;12.48;63.56;100941.06;4962654;28;96564;-81
2021/11/05 06:10:22;;;;;;;21.80;15.25;;;;;;;12.74;62.71;100944.38;4951633;28;96969;-81
2021/11/05 06:12:49;;;;;;;25.85;15.35;;;;;;;12.66;62.72;100940.31;4955412;28;97050;-81
2021/11/05 06:15:15;;;;;;;19.30;14.55;;;;;;;12.65;62.47;100946.56;4954355;28;97980;-78
2021/11/05 06:17:42;;;;;;;21.55;15.73;;;;;;;12.64;63.32;100940.38;4952496;28;97342;-81
2021/11/05 06:20:09;;;;;;;24.50;15.52;;;;;;;12.27;64.13;100962.16;4952734;28;96930;-80
2021/11/05 06:22:37;;;;;;;21.63;14.95;;;;;;;12.13;64.07;100959.22;4952752;28;98963;-79
2021/11/05 06:25:04;;;;;;;22.77;15.52;;;;;;;12.33;64.70;100964.63;4951192;28;102129;-79
2021/11/05 06:27:31;;;;;;;22.60;16.02;;;;;;;12.68;63.14;100959.66;4949014;28;97160;-79
2021/11/05 06:29:58;;;;;;;22.75;15.73;;;;;;;12.66;62.93;100973.00;4951666;28;98793;-79
2021/11/05 06:32:25;;;;;;;22.70;14.75;;;;;;;12.71;63.13;100983.41;4949630;28;98857;-79
2021/11/05 06:34:52;;;;;;;20.45;14.57;;;;;;;12.84;62.04;100987.28;4952506;28;98968;-79
2021/11/05 06:37:18;;;;;;;21.65;14.48;;;;;;;12.59;62.53;100987.44;4953051;28;97154;-79
2021/11/05 06:39:46;;;;;;;23.58;15.82;;;;;;;12.68;61.74;100984.38;4951868;28;97259;-80
2021/11/05 06:42:14;;;;;;;19.80;14.52;;;;;;;12.43;63.63;101006.63;4951301;28;99795;-80
2021/11/05 06:44:41;;;;;;;25.80;15.02;;;;;;;12.80;62.35;101006.06;4946456;28;98512;-81
2021/11/05 06:47:08;;;;;;;23.60;15.18;;;;;;;12.76;62.04;101010.59;4950080;28;96733;-82
2021/11/05 06:49:34;;;;;;;30.13;15.27;;;;;;;12.76;61.86;101010.59;4955928;28;97527;-81
2021/11/05 06:52:01;;;;;;;21.67;15.32;;;;;;;12.57;62.45;101017.56;4953440;28;97975;-81
2021/11/05 06:54:27;;;;;;;22.60;14.60;;;;;;;12.39;63.01;101021.81;4954701;28;99163;-80
2021/11/05 06:56:56;;;;;;;18.88;13.75;;;;;;;12.51;62.50;101031.06;4958447;28;96757;-80
2021/11/05 06:59:22;;;;;;;22.80;14.07;;;;;;;12.52;61.81;101035.44;4961256;28;97033;-80
2021/11/05 07:01:49;;;;;;;25.52;14.77;;;;;;;12.55;62.43;101048.56;4958094;28;100703;-81
2021/11/05 07:04:16;;;;;;;23.55;14.40;;;;;;;12.90;60.92;101056.00;4962866;28;99405;-81
2021/11/05 07:06:45;;;;;;;22.20;13.30;;;;;;;12.85;60.97;101063.28;4953895;28;97323;-82
2021/11/05 07:09:14;;;;;;;20.20;12.93;;;;;;;12.56;61.66;101055.59;4945127;28;96860;-81
2021/11/05 07:11:41;;;;;;;20.95;13.73;;;;;;;12.53;61.90;101061.91;4958313;28;96921;-81
2021/11/05 07:14:11;;;;;;;21.73;14.57;;;;;;;12.92;60.77;101075.38;4956968;28;98120;-81
2021/11/05 07:16:38;;;;;;;21.45;12.98;;;;;;;12.80;61.40;101086.44;4957190;28;97462;-81
2021/11/05 07:19:04;;;;;;;24.33;14.05;;;;;;;12.97;60.36;101097.28;4958088;28;96590;-80
2021/11/05 07:21:34;;;;;;;23.58;14.23;;;;;;;12.38;62.06;101100.44;4957345;28;99113;-81
2021/11/05 07:24:02;;;;;;;29.00;14.40;;;;;;;12.38;62.86;101108.38;4966637;28;100311;-82
2021/11/05 07:26:33;;;;;;;18.05;13.45;;;;;;;12.92;61.60;101109.84;4968705;28;96680;-81
2021/11/05 07:29:00;;;;;;;21.02;14.40;;;;;;;12.13;61.85;101110.22;4959833;28;96810;-81
2021/11/05 07:31:28;;;;;;;20.98;14.13;;;;;;;12.27;61.64;101109.72;4955566;28;98155;-81
2021/11/05 07:33:55;;;;;;;21.65;13.80;;;;;;;12.80;60.65;101115.63;4943007;28;97798;-80
2021/11/05 07:36:23;;;;;;;19.85;13.52;;;;;;;12.85;60.20;101126.94;4951112;28;97207;-80
2021/11/05 07:38:50;;;;;;;22.95;13.43;;;;;;;12.48;61.86;101121.28;4961770;28;97039;-81
2021/11/05 07:41:17;;;;;;;22.77;14.18;;;;;;;12.77;61.04;101135.19;4950790;28;100113;-81
2021/11/05 07:43:44;;;;;;;21.02;14.32;;;;;;;13.07;60.10;101133.09;4957396;28;100268;-82
2021/11/05 07:46:11;;;;;;;19.55;12.73;;;;;;;12.38;61.54;101144.63;4958579;28;96682;-82
2021/11/05 07:48:39;;;;;;;28.67;14.07;;;;;;;12.53;61.37;101146.72;4953107;28;98528;-82
2021/11/05 07:51:05;;;;;;;23.17;13.50;;;;;;;12.85;60.05;101150.81;4955885;28;100743;-82
2021/11/05 07:53:32;;;;;;;25.52;13.55;;;;;;;12.92;59.95;101152.28;4961577;28;98052;-82
2021/11/05 07:55:59;;;;;;;20.77;12.77;;;;;;;13.23;60.00;101148.47;4969754;28;96590;-81
2021/11/05 07:58:26;;;;;;;20.30;12.77;;;;;;;12.99;59.31;101161.75;4961426;28;96624;-81
2021/11/05 08:00:53;;;;;;;27.98;14.23;;;;;;;12.34;61.36;101164.19;4971770;28;101528;-81
2021/11/05 08:03:19;;;;;;;18.80;12.52;;;;;;;12.81;60.60;101173.03;4962619;28;99188;-81
2021/11/05 08:05:49;;;;;;;19.80;11.63;;;;;;;12.99;60.25;101168.84;4959876;28;96034;-81
2021/11/05 08:08:16;;;;;;;18.50;12.10;;;;;;;12.98;59.54;101177.72;4969281;28;97074;-81
2021/11/05 08:10:43;;;;;;;18.42;12.93;;;;;;;12.97;59.37;101181.28;4946551;28;99015;-81
2021/11/05 08:13:11;;;;;;;24.83;13.70;;;;;;;13.38;59.17;101182.34;4939256;28;101932;-81
2021/11/05 08:15:38;;;;;;;20.42;13.13;;;;;;;13.43;58.88;101193.66;4954223;28;96827;-81
2021/11/05 08:18:04;;;;;;;23.10;12.98;;;;;;;13.02;60.61;101205.84;4953144;28;97275;-83
2021/11/05 08:20:31;;;;;;;24.35;13.25;;;;;;;13.45;59.07;101197.13;4960865;28;98942;-81
2021/11/05 08:22:59;;;;;;;22.00;12.82;;;;;;;13.40;58.77;101215.00;4940295;28;97723;-81
2021/11/05 08:25:28;;;;;;;23.23;13.30;;;;;;;13.38;58.44;101206.25;4945623;28;96691;-81
2021/11/05 08:27:56;;;;;;;22.83;12.70;;;;;;;13.33;58.80;101208.19;4958810;28;96860;-81
2021/11/05 08:30:25;;;;;;;21.20;13.30;;;;;;;13.56;58.76;101216.13;4955730;28;99356;-81
2021/11/05 08:32:55;;;;;;;24.95;14.15;;;;;;;13.66;58.25;101220.13;4938866;28;99331;-83
2021/11/05 08:35:24;;;;;;;25.80;12.80;;;;;;;13.36;58.73;101221.34;4938998;28;96772;-82
2021/11/05 08:37:51;;;;;;;20.73;12.40;;;;;;;13.57;57.90;101229.34;4939629;28;96957;-82
2021/11/05 08:40:20;;;;;;;21.70;12.38;;;;;;;13.53;58.05;101221.53;4945684;28;97877;-80
2021/11/05 08:42:47;;;;;;;20.90;11.90;;;;;;;13.50;58.58;101237.63;4958121;28;99437;-82
2021/11/05 08:45:16;;;;;;;21.38;12.02;;;;;;;13.84;57.58;101242.44;4953370;28;98145;-81
2021/11/05 08:47:45;;;;;;;19.92;11.93;;;;;;;13.61;57.70;101235.38;4957819;28;97281;-81
2021/11/05 08:50:14;;;;;;;17.50;11.60;;;;;;;13.59;56.98;101247.00;4943864;28;98478;-81
2021/11/05 08:52:43;;;;;;;22.65;12.05;;;;;;;12.89;60.00;101250.53;4956768;28;100823;-81
2021/11/05 08:55:11;;;;;;;18.65;11.68;;;;;;;12.90;59.78;101251.41;4936282;28;97166;-81
2021/11/05 08:57:40;;;;;;;17.55;10.50;;;;;;;12.83;60.30;101256.06;4936717;28;96747;-82
2021/11/05 09:00:09;;;;;;;19.92;11.50;;;;;;;12.72;59.75;101247.66;4942084;28;101570;-82
2021/11/05 09:02:36;;;;;;;21.67;11.80;;;;;;;13.57;58.38;101260.34;4945992;28;98103;-82
2021/11/05 09:05:03;;;;;;;23.35;11.27;;;;;;;13.64;57.46;101259.19;4956390;28;97166;-81
2021/11/05 09:07:30;;;;;;;15.13;10.35;;;;;;;13.65;57.15;101260.03;4954836;28;97154;-82
2021/11/05 09:09:57;;;;;;;23.40;10.10;;;;;;;13.38;57.46;101269.94;4956398;28;96960;-82
2021/11/05 09:12:24;;;;;;;17.90;9.65;;;;;;;12.65;58.65;101270.00;4955085;28;98872;-82
2021/11/05 09:14:56;;;;;;;18.85;9.95;;;;;;;12.88;58.63;101271.81;4958239;28;96630;-81
2021/11/05 09:17:23;;;;;;;15.40;9.07;;;;;;;12.88;58.91;101285.06;4957558;28;97153;-81
2021/11/05 09:19:49;;;;;;;14.88;9.48;;;;;;;13.03;58.39;101274.78;4968898;28;99403;-82
2021/11/05 09:22:16;;;;;;;15.45;8.93;;;;;;;13.23;57.61;101283.81;4970147;28;97650;-81
2021/11/05 09:24:42;;;;;;;17.88;8.88;;;;;;;13.39;57.75;101288.44;4973504;28;96476;-81
2021/11/05 09:27:10;;;;;;;13.43;7.88;;;;;;;13.30;56.96;101294.13;4975252;28;96466;-81
2021/11/05 09:29:36;;;;;;;15.32;9.05;;;;;;;13.20;57.18;101291.88;4970759;28;99477;-81
2021/11/05 09:32:05;;;;;;;11.88;7.70;;;;;;;13.51;56.28;101303.06;4979289;28;97706;-81
2021/11/05 09:34:32;;;;;;;12.73;7.50;;;;;;;13.95;55.72;101294.19;4975691;28;96278;-82
2021/11/05 09:37:00;;;;;;;12.38;7.90;;;;;;;14.00;55.58;101307.28;4979666;28;96569;-82
2021/11/05 09:39:27;;;;;;;13.00;7.18;;;;;;;13.79;54.79;101314.31;4958684;28;96889;-81
2021/11/05 09:41:54;;;;;;;10.60;7.43;;;;;;;13.64;56.03;101322.91;4962272;28;97867;-81
2021/11/05 09:44:21;;;;;;;12.23;7.97;;;;;;;13.85;55.56;101321.16;4953196;28;96871;-81
2021/11/05 09:46:48;;;;;;;15.90;8.75;;;;;;;14.01;54.89;101318.78;4957441;28;96818;-81
2021/11/05 09:49:16;;;;;;;17.15;8.55;;;;;;;14.25;54.72;101325.72;4954598;28;98740;-81
2021/11/05 09:51:43;;;;;;;11.57;8.02;;;;;;;14.43;53.94;101321.50;4944773;28;101289;-80
2021/11/05 09:54:11;;;;;;;13.75;8.65;;;;;;;14.05;53.96;101331.88;4953301;28;97693;-81
2021/11/05 09:56:38;;;;;;;17.13;8.77;;;;;;;13.43;56.19;101337.00;4956311;28;97415;-81
2021/11/05 09:59:06;;;;;;;14.13;8.35;;;;;;;13.19;57.91;101348.53;4955129;28;98242;-82
2021/11/05 10:01:32;;;;;;;17.30;8.65;;;;;;;13.40;56.88;101343.28;4955596;28;99490;-81
2021/11/05 10:03:59;;;;;;;12.82;7.47;;;;;;;13.53;56.83;101346.31;4955571;28;96740;-81
2021/11/05 10:06:27;;;;;;;11.77;7.40;;;;;;;13.73;55.91;101346.44;4956223;28;96770;-81
2021/11/05 10:08:55;;;;;;;13.10;8.13;;;;;;;13.59;56.08;101354.06;4954395;28;97828;-81
2021/11/05 10:11:25;;;;;;;15.63;7.72;;;;;;;13.45;56.45;101367.03;4955120;28;98041;-81
2021/11/05 10:13:52;;;;;;;13.10;8.00;;;;;;;13.57;56.30;101367.41;4956516;28;97081;-81
2021/11/05 10:16:21;;;;;;;14.63;8.30;;;;;;;14.09;55.70;101381.31;4957958;28;96918;-81
2021/11/05 10:18:56;;;;;;;12.73;7.93;;;;;;;13.62;56.51;101371.69;4952982;28;98106;-83
2021/11/05 10:21:24;;;;;;;14.35;7.47;;;;;;;13.09;57.83;101380.66;4955075;28;98381;-81
2021/11/05 10:23:52;;;;;;;10.77;6.13;;;;;;;13.55;56.02;101389.63;4957072;28;96728;-81
2021/11/05 10:26:22;;;;;;;10.02;6.03;;;;;;;13.41;55.65;101394.59;4955794;28;96915;-81
2021/11/05 10:28:49;;;;;;;10.77;6.63;;;;;;;13.84;54.83;101397.38;4954928;28;99196;-82
2021/11/05 10:31:17;;;;;;;9.13;5.47;;;;;;;13.41;55.78;101394.59;4955216;28;100742;-81
2021/11/05 10:33:47;;;;;;;10.88;5.63;;;;;;;13.60;55.07;101402.72;4956010;28;96902;-82
2021/11/05 10:36:15;;;;;;;10.10;5.13;;;;;;;13.49;56.05;101403.13;4960445;28;96888;-81
2021/11/05 10:38:45;;;;;;;10.63;5.90;;;;;;;13.83;54.87;101408.03;4959709;28;97750;-83
2021/11/05 10:41:18;;;;;;;10.65;5.15;;;;;;;14.15;54.13;101412.09;4955507;28;98089;-82
2021/11/05 10:43:47;;;;;;;12.57;5.55;;;;;;;13.79;54.46;101420.56;4956803;28;97652;-83
2021/11/05 10:46:27;;;;;;;9.95;6.35;;;;;;;14.40;52.78;101419.97;4960521;28;96781;-82
2021/11/05 10:48:56;;;;;;;10.82;5.68;;;;;;;14.03;53.96;101412.59;4962263;28;99665;-82
2021/11/05 10:51:25;;;;;;;8.73;4.97;;;;;;;14.25;53.46;101424.94;4960148;28;96646;-82
2021/11/05 10:53:52;;;;;;;9.27;5.40;;;;;;;13.58;54.30;101424.06;4957087;28;96642;-81
2021/11/05 10:56:24;;;;;;;10.57;5.40;;;;;;;13.98;55.21;101432.22;4957262;28;97976;-81
2021/11/05 10:58:58;;;;;;;10.35;5.43;;;;;;;14.12;54.16;101436.13;4958261;28;99301;-83
2021/11/05 11:01:26;;;;;;;13.18;5.65;;;;;;;13.58;55.06;101432.00;4962485;28;99378;-83
2021/11/05 11:03:55;;;;;;;16.23;5.60;;;;;;;13.24;55.83;101448.28;4957064;28;96841;-81
2021/11/05 11:06:23;;;;;;;9.30;6.00;;;;;;;13.74;55.51;101443.78;4964040;28;96951;-81
2021/11/05 11:08:54;;;;;;;12.32;6.40;;;;;;;13.88;55.73;101440.59;4970341;28;96713;-82
2021/11/05 11:11:39;;;;;;;10.15;5.40;;;;;;;13.70;55.66;101446.63;4976775;28;97245;-82
2021/11/05 11:14:08;;;;;;;13.35;5.90;;;;;;;13.63;54.32;101450.44;4990332;28;96087;-82
2021/11/05 11:16:37;;;;;;;9.85;4.78;;;;;;;13.78;54.40;101461.34;4977873;28;96803;-81
2021/11/05 11:19:09;;;;;;;10.57;4.93;;;;;;;13.60;55.29;101472.63;4978806;28;98566;-81